sensor_id;sensor_type;location;lat;lon;timestamp;pressure;altitude;pressure_sealevel;temperature;humidity
8229;BME280;4155;50.118;8.714;2022-08-30T00:01:26;100414.00;;;18.17;51.09
8229;BME280;4155;50.118;8.714;2022-08-30T00:03:54;100417.91;;;18.33;50.82
8229;BME280;4155;50.118;8.714;2022-08-30T00:06:24;100408.34;;;18.30;50.51
8229;BME280;4155;50.118;8.714;2022-08-30T00:08:55;100409.78;;;18.21;50.79
8229;BME280;4155;50.118;8.714;2022-08-30T00:11:26;100407.28;;;18.19;51.06
8229;BME280;4155;50.118;8.714;2022-08-30T00:13:55;100411.28;;;18.17;51.34
8229;BME280;4155;50.118;8.714;2022-08-30T00:16:24;100406.09;;;18.15;51.26
8229;BME280;4155;50.118;8.714;2022-08-30T00:18:52;100406.81;;;18.11;51.20
8229;BME280;4155;50.118;8.714;2022-08-30T00:21:21;100407.75;;;18.05;51.58
8229;BME280;4155;50.118;8.714;2022-08-30T00:23:49;100410.47;;;18.16;51.21
8229;BME280;4155;50.118;8.714;2022-08-30T00:26:18;100403.97;;;18.06;51.89
8229;BME280;4155;50.118;8.714;2022-08-30T00:28:47;100405.53;;;18.02;51.85
8229;BME280;4155;50.118;8.714;2022-08-30T00:31:15;100401.88;;;18.08;51.69
8229;BME280;4155;50.118;8.714;2022-08-30T00:33:42;100400.69;;;18.04;51.88
8229;BME280;4155;50.118;8.714;2022-08-30T00:36:10;100392.44;;;17.99;52.19
8229;BME280;4155;50.118;8.714;2022-08-30T00:38:38;100407.06;;;17.98;52.41
8229;BME280;4155;50.118;8.714;2022-08-30T00:41:06;100402.09;;;17.95;52.39
8229;BME280;4155;50.118;8.714;2022-08-30T00:43:35;100402.56;;;17.91;52.33
8229;BME280;4155;50.118;8.714;2022-08-30T00:46:03;100393.69;;;17.84;52.92
8229;BME280;4155;50.118;8.714;2022-08-30T00:48:36;100399.94;;;17.73;53.17
8229;BME280;4155;50.118;8.714;2022-08-30T00:51:08;100402.06;;;17.71;53.23
8229;BME280;4155;50.118;8.714;2022-08-30T00:53:39;100400.22;;;17.53;53.96
8229;BME280;4155;50.118;8.714;2022-08-30T00:56:09;100400.59;;;17.45;54.20
8229;BME280;4155;50.118;8.714;2022-08-30T00:58:41;100406.22;;;17.44;54.33
8229;BME280;4155;50.118;8.714;2022-08-30T01:01:11;100408.47;;;17.35;54.68
8229;BME280;4155;50.118;8.714;2022-08-30T01:03:39;100408.81;;;17.39;54.44
8229;BME280;4155;50.118;8.714;2022-08-30T01:06:09;100418.09;;;17.31;54.80
8229;BME280;4155;50.118;8.714;2022-08-30T01:08:36;100417.59;;;17.22;55.74
8229;BME280;4155;50.118;8.714;2022-08-30T01:11:04;100422.06;;;17.17;56.01
8229;BME280;4155;50.118;8.714;2022-08-30T01:13:34;100431.03;;;17.17;56.11
8229;BME280;4155;50.118;8.714;2022-08-30T01:16:04;100434.84;;;17.28;55.31
8229;BME280;4155;50.118;8.714;2022-08-30T01:18:33;100428.44;;;17.22;55.49
8229;BME280;4155;50.118;8.714;2022-08-30T01:21:07;100425.13;;;17.20;55.63
8229;BME280;4155;50.118;8.714;2022-08-30T01:23:41;100426.91;;;17.15;56.30
8229;BME280;4155;50.118;8.714;2022-08-30T01:26:12;100425.72;;;17.22;56.11
8229;BME280;4155;50.118;8.714;2022-08-30T01:28:43;100426.06;;;17.14;56.61
8229;BME280;4155;50.118;8.714;2022-08-30T01:31:13;100429.69;;;17.08;56.71
8229;BME280;4155;50.118;8.714;2022-08-30T01:33:41;100428.78;;;17.14;56.87
8229;BME280;4155;50.118;8.714;2022-08-30T01:36:11;100425.78;;;17.04;56.98
8229;BME280;4155;50.118;8.714;2022-08-30T01:38:46;100427.22;;;17.06;57.25
8229;BME280;4155;50.118;8.714;2022-08-30T01:41:17;100428.09;;;17.00;57.47
8229;BME280;4155;50.118;8.714;2022-08-30T01:43:47;100424.38;;;17.01;57.77
8229;BME280;4155;50.118;8.714;2022-08-30T01:46:16;100416.09;;;16.96;57.67
8229;BME280;4155;50.118;8.714;2022-08-30T01:48:46;100413.38;;;16.96;57.96
8229;BME280;4155;50.118;8.714;2022-08-30T01:51:21;100424.72;;;17.05;57.79
8229;BME280;4155;50.118;8.714;2022-08-30T01:53:51;100416.56;;;16.93;57.48
8229;BME280;4155;50.118;8.714;2022-08-30T01:56:19;100413.09;;;16.86;58.54
8229;BME280;4155;50.118;8.714;2022-08-30T01:58:46;100423.09;;;16.86;58.78
8229;BME280;4155;50.118;8.714;2022-08-30T02:01:16;100417.31;;;16.82;59.07
8229;BME280;4155;50.118;8.714;2022-08-30T02:03:45;100419.03;;;16.76;59.08
8229;BME280;4155;50.118;8.714;2022-08-30T02:06:18;100417.63;;;16.74;58.83
8229;BME280;4155;50.118;8.714;2022-08-30T02:08:47;100415.97;;;16.73;59.32
8229;BME280;4155;50.118;8.714;2022-08-30T02:11:16;100412.22;;;16.74;59.22
8229;BME280;4155;50.118;8.714;2022-08-30T02:13:45;100415.97;;;16.73;59.28
8229;BME280;4155;50.118;8.714;2022-08-30T02:16:14;100412.66;;;16.71;59.43
8229;BME280;4155;50.118;8.714;2022-08-30T02:18:43;100410.59;;;16.66;59.62
8229;BME280;4155;50.118;8.714;2022-08-30T02:21:12;100417.66;;;16.67;59.75
8229;BME280;4155;50.118;8.714;2022-08-30T02:23:40;100423.19;;;16.61;59.68
8229;BME280;4155;50.118;8.714;2022-08-30T02:26:09;100422.13;;;16.62;59.99
8229;BME280;4155;50.118;8.714;2022-08-30T02:28:38;100419.66;;;16.60;60.00
8229;BME280;4155;50.118;8.714;2022-08-30T02:31:16;100419.03;;;16.58;60.42
8229;BME280;4155;50.118;8.714;2022-08-30T02:33:47;100428.06;;;16.52;60.72
8229;BME280;4155;50.118;8.714;2022-08-30T02:36:16;100429.78;;;16.46;60.99
8229;BME280;4155;50.118;8.714;2022-08-30T02:38:43;100422.94;;;16.44;60.96
8229;BME280;4155;50.118;8.714;2022-08-30T02:41:11;100415.03;;;16.42;60.77
8229;BME280;4155;50.118;8.714;2022-08-30T02:43:41;100425.66;;;16.44;61.19
8229;BME280;4155;50.118;8.714;2022-08-30T02:46:08;100429.34;;;16.49;61.03
8229;BME280;4155;50.118;8.714;2022-08-30T02:48:36;100435.34;;;16.52;60.97
8229;BME280;4155;50.118;8.714;2022-08-30T02:51:05;100437.47;;;16.49;61.03
8229;BME280;4155;50.118;8.714;2022-08-30T02:53:36;100433.72;;;16.51;61.12
8229;BME280;4155;50.118;8.714;2022-08-30T02:56:05;100422.94;;;16.44;61.15
8229;BME280;4155;50.118;8.714;2022-08-30T02:58:33;100430.69;;;16.40;61.50
8229;BME280;4155;50.118;8.714;2022-08-30T03:01:03;100427.81;;;16.35;62.01
8229;BME280;4155;50.118;8.714;2022-08-30T03:03:32;100418.22;;;16.39;61.61
8229;BME280;4155;50.118;8.714;2022-08-30T03:06:00;100418.22;;;16.39;62.09
8229;BME280;4155;50.118;8.714;2022-08-30T03:08:28;100421.66;;;16.65;61.18
8229;BME280;4155;50.118;8.714;2022-08-30T03:10:56;100425.16;;;16.72;61.05
8229;BME280;4155;50.118;8.714;2022-08-30T03:13:24;100418.09;;;16.71;61.34
8229;BME280;4155;50.118;8.714;2022-08-30T03:15:52;100414.16;;;16.85;60.86
8229;BME280;4155;50.118;8.714;2022-08-30T03:18:22;100425.13;;;16.90;60.63
8229;BME280;4155;50.118;8.714;2022-08-30T03:20:50;100426.50;;;16.81;61.07
8229;BME280;4155;50.118;8.714;2022-08-30T03:23:21;100423.47;;;16.89;60.88
8229;BME280;4155;50.118;8.714;2022-08-30T03:25:50;100421.81;;;16.88;61.01
8229;BME280;4155;50.118;8.714;2022-08-30T03:28:18;100409.97;;;16.71;61.72
8229;BME280;4155;50.118;8.714;2022-08-30T03:30:46;100419.03;;;16.76;61.65
8229;BME280;4155;50.118;8.714;2022-08-30T03:33:14;100415.75;;;16.74;61.75
8229;BME280;4155;50.118;8.714;2022-08-30T03:35:46;100413.69;;;16.52;62.67
8229;BME280;4155;50.118;8.714;2022-08-30T03:38:15;100407.81;;;16.55;62.17
8229;BME280;4155;50.118;8.714;2022-08-30T03:40:42;100411.50;;;16.42;62.67
8229;BME280;4155;50.118;8.714;2022-08-30T03:43:10;100417.69;;;16.31;63.28
8229;BME280;4155;50.118;8.714;2022-08-30T03:45:39;100416.84;;;16.30;63.31
8229;BME280;4155;50.118;8.714;2022-08-30T03:48:06;100423.44;;;16.16;64.03
8229;BME280;4155;50.118;8.714;2022-08-30T03:50:34;100422.81;;;16.14;64.03
8229;BME280;4155;50.118;8.714;2022-08-30T03:53:03;100416.38;;;16.15;63.66
8229;BME280;4155;50.118;8.714;2022-08-30T03:55:31;100412.91;;;16.08;64.20
8229;BME280;4155;50.118;8.714;2022-08-30T03:57:59;100422.28;;;16.05;64.45
8229;BME280;4155;50.118;8.714;2022-08-30T04:00:27;100419.47;;;15.94;64.88
8229;BME280;4155;50.118;8.714;2022-08-30T04:02:55;100414.06;;;15.94;65.14
8229;BME280;4155;50.118;8.714;2022-08-30T04:05:22;100412.75;;;16.03;64.81
8229;BME280;4155;50.118;8.714;2022-08-30T04:07:50;100414.84;;;16.01;64.90
8229;BME280;4155;50.118;8.714;2022-08-30T04:10:19;100408.06;;;15.91;65.64
8229;BME280;4155;50.118;8.714;2022-08-30T04:12:48;100418.50;;;15.88;65.47
8229;BME280;4155;50.118;8.714;2022-08-30T04:15:18;100422.03;;;15.88;65.54
8229;BME280;4155;50.118;8.714;2022-08-30T04:17:46;100425.56;;;15.89;65.43
8229;BME280;4155;50.118;8.714;2022-08-30T04:20:14;100422.34;;;15.99;65.62
8229;BME280;4155;50.118;8.714;2022-08-30T04:22:42;100428.22;;;15.96;65.66
8229;BME280;4155;50.118;8.714;2022-08-30T04:25:12;100431.44;;;15.86;66.15
8229;BME280;4155;50.118;8.714;2022-08-30T04:27:43;100433.00;;;15.94;65.76
8229;BME280;4155;50.118;8.714;2022-08-30T04:30:13;100434.25;;;16.16;65.17
8229;BME280;4155;50.118;8.714;2022-08-30T04:32:41;100434.13;;;16.29;64.87
8229;BME280;4155;50.118;8.714;2022-08-30T04:35:09;100439.59;;;16.23;64.66
8229;BME280;4155;50.118;8.714;2022-08-30T04:37:38;100428.97;;;16.28;65.19
8229;BME280;4155;50.118;8.714;2022-08-30T04:40:07;100433.31;;;16.29;64.50
8229;BME280;4155;50.118;8.714;2022-08-30T04:42:36;100431.22;;;16.31;64.53
8229;BME280;4155;50.118;8.714;2022-08-30T04:45:07;100444.88;;;16.36;64.87
8229;BME280;4155;50.118;8.714;2022-08-30T04:47:37;100434.41;;;16.21;65.15
8229;BME280;4155;50.118;8.714;2022-08-30T04:50:06;100439.78;;;16.28;64.96
8229;BME280;4155;50.118;8.714;2022-08-30T04:52:34;100434.41;;;16.21;65.09
8229;BME280;4155;50.118;8.714;2022-08-30T04:55:02;100442.16;;;16.17;65.32
8229;BME280;4155;50.118;8.714;2022-08-30T04:57:30;100446.38;;;16.32;65.02
8229;BME280;4155;50.118;8.714;2022-08-30T04:59:57;100451.22;;;16.30;65.26
8229;BME280;4155;50.118;8.714;2022-08-30T05:02:26;100452.56;;;16.39;64.95
8229;BME280;4155;50.118;8.714;2022-08-30T05:04:54;100453.63;;;16.38;65.04
8229;BME280;4155;50.118;8.714;2022-08-30T05:07:40;100456.03;;;16.46;64.67
8229;BME280;4155;50.118;8.714;2022-08-30T05:10:08;100459.34;;;16.66;64.23
8229;BME280;4155;50.118;8.714;2022-08-30T05:12:37;100451.31;;;16.78;63.80
8229;BME280;4155;50.118;8.714;2022-08-30T05:15:06;100463.28;;;16.89;63.13
8229;BME280;4155;50.118;8.714;2022-08-30T05:17:35;100457.56;;;16.97;63.60
8229;BME280;4155;50.118;8.714;2022-08-30T05:20:04;100463.19;;;16.95;63.31
8229;BME280;4155;50.118;8.714;2022-08-30T05:22:34;100455.59;;;17.04;63.29
8229;BME280;4155;50.118;8.714;2022-08-30T05:25:03;100464.59;;;17.16;62.89
8229;BME280;4155;50.118;8.714;2022-08-30T05:27:31;100468.69;;;17.37;62.03
8229;BME280;4155;50.118;8.714;2022-08-30T05:30:03;100470.75;;;17.53;61.81
8229;BME280;4155;50.118;8.714;2022-08-30T05:32:31;100473.09;;;17.80;61.12
8229;BME280;4155;50.118;8.714;2022-08-30T05:35:00;100478.34;;;18.40;59.55
8229;BME280;4155;50.118;8.714;2022-08-30T05:37:28;100476.81;;;18.32;59.08
8229;BME280;4155;50.118;8.714;2022-08-30T05:39:55;100482.34;;;18.37;59.35
8229;BME280;4155;50.118;8.714;2022-08-30T05:42:24;100475.75;;;18.21;59.84
8229;BME280;4155;50.118;8.714;2022-08-30T05:44:53;100473.84;;;18.45;58.85
8229;BME280;4155;50.118;8.714;2022-08-30T05:47:21;100474.56;;;18.53;58.66
8229;BME280;4155;50.118;8.714;2022-08-30T05:49:49;100483.19;;;18.73;58.24
8229;BME280;4155;50.118;8.714;2022-08-30T05:52:18;100475.69;;;19.32;56.82
8229;BME280;4155;50.118;8.714;2022-08-30T05:54:51;100478.31;;;19.55;55.81
8229;BME280;4155;50.118;8.714;2022-08-30T05:57:19;100472.97;;;19.60;55.64
8229;BME280;4155;50.118;8.714;2022-08-30T05:59:47;100475.41;;;20.24;54.04
8229;BME280;4155;50.118;8.714;2022-08-30T06:02:15;100476.03;;;21.30;51.65
8229;BME280;4155;50.118;8.714;2022-08-30T06:04:43;100476.88;;;22.22;48.81
8229;BME280;4155;50.118;8.714;2022-08-30T06:07:11;100476.34;;;23.25;46.51
8229;BME280;4155;50.118;8.714;2022-08-30T06:09:43;100466.63;;;23.95;44.78
8229;BME280;4155;50.118;8.714;2022-08-30T06:12:11;100458.34;;;24.56;43.64
8229;BME280;4155;50.118;8.714;2022-08-30T06:14:39;100458.34;;;25.31;41.43
8229;BME280;4155;50.118;8.714;2022-08-30T06:17:07;100445.50;;;25.60;41.44
8229;BME280;4155;50.118;8.714;2022-08-30T06:19:35;100434.91;;;25.44;41.16
8229;BME280;4155;50.118;8.714;2022-08-30T06:22:03;100435.03;;;25.62;40.77
8229;BME280;4155;50.118;8.714;2022-08-30T06:24:32;100428.75;;;25.96;40.08
8229;BME280;4155;50.118;8.714;2022-08-30T06:27:23;100417.44;;;24.65;42.72
8229;BME280;4155;50.118;8.714;2022-08-30T06:29:50;100405.59;;;25.34;41.58
8229;BME280;4155;50.118;8.714;2022-08-30T06:32:18;100420.78;;;25.60;40.11
8229;BME280;4155;50.118;8.714;2022-08-30T06:34:46;100416.78;;;25.82;40.10
8229;BME280;4155;50.118;8.714;2022-08-30T06:37:14;100420.22;;;25.63;40.61
8229;BME280;4155;50.118;8.714;2022-08-30T06:39:55;100426.25;;;26.29;39.99
8229;BME280;4155;50.118;8.714;2022-08-30T06:42:25;100417.31;;;26.42;39.34
8229;BME280;4155;50.118;8.714;2022-08-30T06:44:57;100411.22;;;26.45;39.49
8229;BME280;4155;50.118;8.714;2022-08-30T06:47:25;100418.66;;;26.68;37.94
8229;BME280;4155;50.118;8.714;2022-08-30T06:49:54;100406.38;;;27.41;37.28
8229;BME280;4155;50.118;8.714;2022-08-30T06:52:22;100405.94;;;27.72;36.76
8229;BME280;4155;50.118;8.714;2022-08-30T06:54:50;100407.50;;;27.78;36.70
8229;BME280;4155;50.118;8.714;2022-08-30T06:57:19;100402.47;;;26.86;37.73
8229;BME280;4155;50.118;8.714;2022-08-30T06:59:49;100404.56;;;26.22;39.21
8229;BME280;4155;50.118;8.714;2022-08-30T07:02:22;100402.63;;;25.99;40.14
8229;BME280;4155;50.118;8.714;2022-08-30T07:04:50;100409.09;;;26.85;38.10
8229;BME280;4155;50.118;8.714;2022-08-30T07:07:18;100408.63;;;26.59;38.41
8229;BME280;4155;50.118;8.714;2022-08-30T07:09:46;100413.91;;;27.54;37.25
8229;BME280;4155;50.118;8.714;2022-08-30T07:12:14;100417.69;;;28.10;35.72
8229;BME280;4155;50.118;8.714;2022-08-30T07:14:42;100408.09;;;27.37;36.60
8229;BME280;4155;50.118;8.714;2022-08-30T07:17:11;100413.84;;;27.03;38.41
8229;BME280;4155;50.118;8.714;2022-08-30T07:20:01;100404.31;;;27.14;37.88
8229;BME280;4155;50.118;8.714;2022-08-30T07:22:31;100405.03;;;26.05;39.78
8229;BME280;4155;50.118;8.714;2022-08-30T07:24:59;100403.97;;;25.33;39.67
8229;BME280;4155;50.118;8.714;2022-08-30T07:27:27;100419.31;;;24.79;41.50
8229;BME280;4155;50.118;8.714;2022-08-30T07:29:54;100424.34;;;25.61;40.24
8229;BME280;4155;50.118;8.714;2022-08-30T07:32:25;100422.09;;;25.29;39.91
8229;BME280;4155;50.118;8.714;2022-08-30T07:34:54;100430.25;;;26.12;39.50
8229;BME280;4155;50.118;8.714;2022-08-30T07:37:22;100430.50;;;27.30;37.36
8229;BME280;4155;50.118;8.714;2022-08-30T07:39:50;100432.59;;;27.76;36.36
8229;BME280;4155;50.118;8.714;2022-08-30T07:42:18;100429.69;;;27.86;36.13
8229;BME280;4155;50.118;8.714;2022-08-30T07:44:46;100423.22;;;27.21;36.77
8229;BME280;4155;50.118;8.714;2022-08-30T07:47:14;100413.97;;;27.49;36.54
8229;BME280;4155;50.118;8.714;2022-08-30T07:49:43;100424.84;;;26.79;37.87
8229;BME280;4155;50.118;8.714;2022-08-30T07:52:11;100430.56;;;27.82;36.71
8229;BME280;4155;50.118;8.714;2022-08-30T07:54:38;100421.06;;;27.55;37.62
8229;BME280;4155;50.118;8.714;2022-08-30T07:57:06;100420.31;;;27.69;37.12
8229;BME280;4155;50.118;8.714;2022-08-30T07:59:34;100405.19;;;25.12;39.92
8229;BME280;4155;50.118;8.714;2022-08-30T08:02:02;100422.00;;;26.41;38.47
8229;BME280;4155;50.118;8.714;2022-08-30T08:04:30;100424.44;;;27.33;36.95
8229;BME280;4155;50.118;8.714;2022-08-30T08:07:00;100423.00;;;26.74;37.98
8229;BME280;4155;50.118;8.714;2022-08-30T08:09:28;100425.38;;;26.04;38.00
8229;BME280;4155;50.118;8.714;2022-08-30T08:11:55;100428.28;;;26.71;38.52
8229;BME280;4155;50.118;8.714;2022-08-30T08:14:23;100434.38;;;26.87;37.02
8229;BME280;4155;50.118;8.714;2022-08-30T08:16:51;100439.28;;;28.35;35.40
8229;BME280;4155;50.118;8.714;2022-08-30T08:19:19;100431.84;;;28.03;35.84
8229;BME280;4155;50.118;8.714;2022-08-30T08:21:47;100439.09;;;28.59;35.52
8229;BME280;4155;50.118;8.714;2022-08-30T08:24:36;100427.75;;;28.01;36.14
8229;BME280;4155;50.118;8.714;2022-08-30T08:27:04;100428.88;;;28.46;35.68
8229;BME280;4155;50.118;8.714;2022-08-30T08:29:31;100423.84;;;28.34;36.02
8229;BME280;4155;50.118;8.714;2022-08-30T08:31:59;100427.16;;;27.71;36.37
8229;BME280;4155;50.118;8.714;2022-08-30T08:34:27;100427.38;;;27.18;37.63
8229;BME280;4155;50.118;8.714;2022-08-30T08:36:55;100422.66;;;27.00;37.25
8229;BME280;4155;50.118;8.714;2022-08-30T08:39:22;100427.44;;;26.70;37.87
8229;BME280;4155;50.118;8.714;2022-08-30T08:42:00;100432.44;;;27.86;35.78
8229;BME280;4155;50.118;8.714;2022-08-30T08:44:42;100422.69;;;26.76;37.68
8229;BME280;4155;50.118;8.714;2022-08-30T08:47:24;100432.31;;;26.97;37.49
8229;BME280;4155;50.118;8.714;2022-08-30T08:49:55;100419.56;;;25.37;39.61
8229;BME280;4155;50.118;8.714;2022-08-30T08:52:28;100418.63;;;25.13;39.89
8229;BME280;4155;50.118;8.714;2022-08-30T08:55:17;100430.47;;;25.53;40.20
8229;BME280;4155;50.118;8.714;2022-08-30T08:57:48;100427.97;;;25.90;38.70
8229;BME280;4155;50.118;8.714;2022-08-30T09:00:17;100432.16;;;26.12;38.54
8229;BME280;4155;50.118;8.714;2022-08-30T09:02:47;100433.41;;;26.24;38.99
8229;BME280;4155;50.118;8.714;2022-08-30T09:05:22;100428.31;;;26.42;38.92
8229;BME280;4155;50.118;8.714;2022-08-30T09:07:57;100428.97;;;26.81;37.75
8229;BME280;4155;50.118;8.714;2022-08-30T09:10:26;100413.75;;;26.65;37.39
8229;BME280;4155;50.118;8.714;2022-08-30T09:13:16;100423.25;;;26.97;38.04
8229;BME280;4155;50.118;8.714;2022-08-30T09:15:48;100412.91;;;26.65;38.83
8229;BME280;4155;50.118;8.714;2022-08-30T09:18:39;100415.28;;;26.52;38.05
8229;BME280;4155;50.118;8.714;2022-08-30T09:21:12;100412.00;;;25.92;38.99
8229;BME280;4155;50.118;8.714;2022-08-30T09:23:48;100407.41;;;25.83;39.69
8229;BME280;4155;50.118;8.714;2022-08-30T09:26:28;100394.53;;;24.95;40.92
8229;BME280;4155;50.118;8.714;2022-08-30T09:28:57;100400.31;;;24.93;42.02
8229;BME280;4155;50.118;8.714;2022-08-30T09:31:28;100403.47;;;25.60;40.26
8229;BME280;4155;50.118;8.714;2022-08-30T09:34:00;100402.84;;;25.68;40.24
8229;BME280;4155;50.118;8.714;2022-08-30T09:36:32;100395.06;;;25.46;40.56
8229;BME280;4155;50.118;8.714;2022-08-30T09:39:03;100395.69;;;25.72;39.48
8229;BME280;4155;50.118;8.714;2022-08-30T09:41:36;100407.81;;;25.66;40.13
8229;BME280;4155;50.118;8.714;2022-08-30T09:44:09;100391.66;;;25.59;40.12
8229;BME280;4155;50.118;8.714;2022-08-30T09:46:46;100393.94;;;25.86;39.92
8229;BME280;4155;50.118;8.714;2022-08-30T09:49:31;100381.88;;;25.82;38.86
8229;BME280;4155;50.118;8.714;2022-08-30T09:52:12;100375.31;;;25.44;39.55
8229;BME280;4155;50.118;8.714;2022-08-30T09:54:47;100378.09;;;25.73;39.31
8229;BME280;4155;50.118;8.714;2022-08-30T09:57:24;100380.22;;;25.81;39.44
8229;BME280;4155;50.118;8.714;2022-08-30T10:00:03;100375.09;;;25.75;39.58
8229;BME280;4155;50.118;8.714;2022-08-30T10:02:55;100379.09;;;25.87;38.70
8229;BME280;4155;50.118;8.714;2022-08-30T10:05:30;100373.25;;;25.60;39.11
8229;BME280;4155;50.118;8.714;2022-08-30T10:08:05;100360.13;;;25.18;38.79
8229;BME280;4155;50.118;8.714;2022-08-30T10:10:44;100361.44;;;25.59;39.50
8229;BME280;4155;50.118;8.714;2022-08-30T10:13:30;100361.38;;;25.99;38.49
8229;BME280;4155;50.118;8.714;2022-08-30T10:16:09;100356.78;;;26.18;37.85
8229;BME280;4155;50.118;8.714;2022-08-30T10:18:49;100353.94;;;26.28;37.88
8229;BME280;4155;50.118;8.714;2022-08-30T10:21:24;100348.47;;;26.23;37.17
8229;BME280;4155;50.118;8.714;2022-08-30T10:23:57;100345.53;;;26.14;37.75
8229;BME280;4155;50.118;8.714;2022-08-30T10:26:30;100350.09;;;26.24;36.98
8229;BME280;4155;50.118;8.714;2022-08-30T10:29:03;100345.84;;;26.37;36.81
8229;BME280;4155;50.118;8.714;2022-08-30T10:31:38;100342.75;;;26.43;36.91
8229;BME280;4155;50.118;8.714;2022-08-30T10:34:09;100328.50;;;25.88;38.02
8229;BME280;4155;50.118;8.714;2022-08-30T10:36:43;100338.16;;;26.34;37.09
8229;BME280;4155;50.118;8.714;2022-08-30T10:39:17;100331.56;;;26.35;36.48
8229;BME280;4155;50.118;8.714;2022-08-30T10:41:49;100336.00;;;26.31;36.46
8229;BME280;4155;50.118;8.714;2022-08-30T10:44:22;100332.19;;;26.74;35.34
8229;BME280;4155;50.118;8.714;2022-08-30T10:47:03;100321.19;;;26.93;35.13
8229;BME280;4155;50.118;8.714;2022-08-30T10:49:38;100317.31;;;27.13;34.81
8229;BME280;4155;50.118;8.714;2022-08-30T10:52:21;100318.72;;;26.73;34.39
8229;BME280;4155;50.118;8.714;2022-08-30T10:54:53;100314.53;;;26.57;34.65
8229;BME280;4155;50.118;8.714;2022-08-30T10:57:23;100316.66;;;27.02;34.27
8229;BME280;4155;50.118;8.714;2022-08-30T10:59:55;100309.34;;;26.74;34.42
8229;BME280;4155;50.118;8.714;2022-08-30T11:02:51;100311.22;;;27.16;33.59
8229;BME280;4155;50.118;8.714;2022-08-30T11:05:43;100308.97;;;26.62;34.30
8229;BME280;4155;50.118;8.714;2022-08-30T11:08:25;100296.91;;;26.76;34.63
8229;BME280;4155;50.118;8.714;2022-08-30T11:11:05;100308.72;;;26.58;34.47
8229;BME280;4155;50.118;8.714;2022-08-30T11:13:40;100307.97;;;26.52;35.56
8229;BME280;4155;50.118;8.714;2022-08-30T11:16:10;100296.91;;;26.76;34.91
8229;BME280;4155;50.118;8.714;2022-08-30T11:18:45;100301.38;;;26.72;35.28
8229;BME280;4155;50.118;8.714;2022-08-30T11:21:21;100302.41;;;26.95;35.31
8229;BME280;4155;50.118;8.714;2022-08-30T11:24:03;100304.16;;;26.91;35.25
8229;BME280;4155;50.118;8.714;2022-08-30T11:27:04;100297.13;;;27.18;34.59
8229;BME280;4155;50.118;8.714;2022-08-30T11:29:38;100300.16;;;27.02;34.18
8229;BME280;4155;50.118;8.714;2022-08-30T11:35:43;100300.22;;;27.62;33.78
8229;BME280;4155;50.118;8.714;2022-08-30T11:38:19;100289.91;;;27.87;33.95
8229;BME280;4155;50.118;8.714;2022-08-30T11:41:11;100291.59;;;27.83;33.73
8229;BME280;4155;50.118;8.714;2022-08-30T11:43:51;100279.63;;;27.27;35.03
8229;BME280;4155;50.118;8.714;2022-08-30T11:46:35;100282.09;;;27.43;33.72
8229;BME280;4155;50.118;8.714;2022-08-30T11:52:39;100285.41;;;27.91;35.16
8229;BME280;4155;50.118;8.714;2022-08-30T11:55:38;100277.44;;;28.03;33.30
8229;BME280;4155;50.118;8.714;2022-08-30T11:58:19;100274.88;;;27.65;33.91
8229;BME280;4155;50.118;8.714;2022-08-30T12:01:15;100271.50;;;27.82;33.44
8229;BME280;4155;50.118;8.714;2022-08-30T12:04:06;100271.19;;;28.39;33.22
8229;BME280;4155;50.118;8.714;2022-08-30T12:06:47;100259.81;;;28.54;32.27
8229;BME280;4155;50.118;8.714;2022-08-30T12:12:52;100257.69;;;28.51;32.04
8229;BME280;4155;50.118;8.714;2022-08-30T12:18:12;100256.84;;;28.64;32.59
8229;BME280;4155;50.118;8.714;2022-08-30T12:21:00;100249.69;;;28.63;31.86
8229;BME280;4155;50.118;8.714;2022-08-30T12:23:37;100257.09;;;28.76;31.83
8229;BME280;4155;50.118;8.714;2022-08-30T12:26:16;100249.59;;;28.91;31.31
8229;BME280;4155;50.118;8.714;2022-08-30T12:28:49;100250.03;;;28.70;32.06
8229;BME280;4155;50.118;8.714;2022-08-30T12:31:20;100252.88;;;28.79;32.13
8229;BME280;4155;50.118;8.714;2022-08-30T12:33:53;100254.16;;;28.73;31.42
8229;BME280;4155;50.118;8.714;2022-08-30T12:36:32;100241.09;;;28.65;31.50
8229;BME280;4155;50.118;8.714;2022-08-30T12:39:05;100243.59;;;28.75;32.08
8229;BME280;4155;50.118;8.714;2022-08-30T12:41:33;100248.38;;;28.83;31.00
8229;BME280;4155;50.118;8.714;2022-08-30T12:44:13;100239.25;;;28.96;30.88
8229;BME280;4155;50.118;8.714;2022-08-30T12:46:46;100236.81;;;28.95;31.57
8229;BME280;4155;50.118;8.714;2022-08-30T12:49:15;100240.69;;;29.16;31.26
8229;BME280;4155;50.118;8.714;2022-08-30T12:51:45;100237.13;;;29.16;31.43
8229;BME280;4155;50.118;8.714;2022-08-30T12:54:16;100233.22;;;29.17;31.85
8229;BME280;4155;50.118;8.714;2022-08-30T12:57:00;100233.41;;;28.98;30.77
8229;BME280;4155;50.118;8.714;2022-08-30T12:59:52;100229.88;;;28.84;31.35
8229;BME280;4155;50.118;8.714;2022-08-30T13:02:42;100224.63;;;28.96;31.29
8229;BME280;4155;50.118;8.714;2022-08-30T13:05:44;100227.06;;;29.20;31.13
8229;BME280;4155;50.118;8.714;2022-08-30T13:08:18;100226.22;;;29.42;30.87
8229;BME280;4155;50.118;8.714;2022-08-30T13:10:49;100220.34;;;29.43;30.77
8229;BME280;4155;50.118;8.714;2022-08-30T13:13:33;100217.66;;;29.52;30.23
8229;BME280;4155;50.118;8.714;2022-08-30T13:16:11;100207.88;;;29.46;30.24
8229;BME280;4155;50.118;8.714;2022-08-30T13:18:49;100211.22;;;29.65;30.30
8229;BME280;4155;50.118;8.714;2022-08-30T13:21:25;100215.97;;;29.73;30.07
8229;BME280;4155;50.118;8.714;2022-08-30T13:23:56;100209.94;;;29.40;30.20
8229;BME280;4155;50.118;8.714;2022-08-30T13:26:27;100209.41;;;29.29;30.54
8229;BME280;4155;50.118;8.714;2022-08-30T13:28:58;100207.50;;;29.38;30.32
8229;BME280;4155;50.118;8.714;2022-08-30T13:31:28;100198.19;;;29.34;30.20
8229;BME280;4155;50.118;8.714;2022-08-30T13:33:58;100190.88;;;29.30;30.34
8229;BME280;4155;50.118;8.714;2022-08-30T13:36:30;100195.69;;;29.47;30.26
8229;BME280;4155;50.118;8.714;2022-08-30T13:39:00;100194.81;;;29.69;29.33
8229;BME280;4155;50.118;8.714;2022-08-30T13:41:28;100193.03;;;29.73;29.79
8229;BME280;4155;50.118;8.714;2022-08-30T13:44:00;100194.81;;;29.77;29.57
8229;BME280;4155;50.118;8.714;2022-08-30T13:46:41;100185.88;;;29.72;29.93
8229;BME280;4155;50.118;8.714;2022-08-30T13:49:22;100192.97;;;29.55;30.00